Milford, MO (64766)

8:59 PM CST on February 07, 2016 (GMT -0600)
Irwin, MO | | Change Station
CLOSE
Current Station
Personal Weather Station
Location: Lamar, MO
Elevation: 955 ft
Nearby Weather Stations
Active Advisory: Wind Advisory

Elev 955 ft 37.60 °N, 94.29 °W | Updated 1 minute ago

Partly Cloudy
Partly Cloudy
43.6 °F
Feels Like 35 °F
N
21.0
Wind Variable Wind from NW
Gusts 28.0 mph

Today
High -- | Low -- °F
--% Chance of Precip.
Yesterday
High -- | Low -- °F
Precip. -- in
Pressure 30.07 in
Visibility 10.0 miles
Clouds Clear
Windchill 35 °F
Dew Point 23 °F
Humidity 44%
Rainfall 0.00 in
Snow Depth Not available.
7:15 AM 5:46 PM
Waning Crescent, 0% visible
METAR KPTS 080255Z AUTO 31008KT 10SM CLR 05/M06 A3007 RMK AO2 T00511060
Pressure 30.07 in
Visibility 10.0 miles
Clouds Clear
Windchill 35 °F
Dew Point 23 °F
Humidity 44%
Rainfall 0.00 in
Snow Depth Not available.
7:15 AM 5:46 PM
Waning Crescent, 0% visible
METAR KPTS 080255Z AUTO 31008KT 10SM CLR 05/M06 A3007 RMK AO2 T00511060

10-Day Weather Forecast

Almanac

Astronomy

Feb. 07, 2016 Rise Set
Actual Time
Civil Twilight
Nautical Twilight
Astronomical Twilight
Moon
Length of Visible Light
Length of Day
Tomorrow will be .
, % of the Moon is Illuminated

Today's Extremes

State Highs State Lows

Community

WunderPhotos

Upload Photos

1,891,373 photos uploaded!

WunderBlog® & News

Nearby

Air Quality

  Air Quality AQ Index Pollutant
Not available.

Snow Depth

Station Depth Elevation

Earthquake Activity

City Distance Mag. Time & Date
Minimum magnitude displayed is 2.5.

Coastal Water Temperatures

Place Temperature

Stations

Nearby Weather Stations

Station Location Temp. Windchill Dew Point Humidity Wind Precip. Elev Updated Type
                   

Watches & Warnings

Wind Advisory
Issued: 2:49 PM CST Feb. 7, 2016 – National Weather Service

... Wind Advisory in effect from 8 am to 6 PM CST Monday...

The National Weather Service in Springfield has issued a Wind
Advisory... which is in effect from 8 am to 6 PM CST Monday.

* Timing... winds will increase early Monday morning behind a
strong cold front and low pressure over the Midwest.

* Winds... northwest winds of 25 to 35 mph with gusts of 40 to 45
mph are expected.

* Impacts... strong Crosswinds on highways can be
expected... especially for high profile vehicles.

Precautionary/preparedness actions...

A Wind Advisory means that winds of 35 mph are expected. Winds
this strong can make driving difficult... especially for high
profile vehicles. Use extra caution.



Dsa